Terminal Aerodrome Forecast
Issued by NWS Binghamton, NY

Home | Current Version | Previous Version | Text Only | Print | Product List | Glossary On
Versions: 1 2 3 4 5 6 7 8 9 10 11 12 13 14 15 16 17 18 19 20 21 22 23
000
FTUS41 KBGM 242300
TAFAVP
TAF
KAVP 242339Z 2500/2524 VRB03KT P6SM SCT009 OVC015 WS020/20045KT
      TEMPO 2503/2507 OVC009
     FM250700 24015G30KT 4SM SHRA OVC012
     FM250900 26018G30KT P6SM SCT020
     FM251400 27015G25KT P6SM BKN030
     FM252100 27013KT P6SM BKN040=

USA.gov is the U.S. government's official web portal to all federal, state and local government web resources and services.